»·PEaware :: N856CM KSMX-KBFL

N856CM :: KSMX-KBFL

FLIGHT INFORMATION

Flight Status: Arrived
Operator: Privately registered:
United States
More flights under this callsign
Pilot: Jimmy M. (17685)
Aircraft: CESSNA 172 SKYHAWK
(C172)
More flights by this aircraft type
Origin: KSMX Santa Maria Pub/Capt Hancock
United States
Destination: KBFL Meadows
United States
More flights between these airports :: More routes between these airports
Route:
File this flight plan on PilotEdge
Remarks: CAT 5
Altitude:
(Current/Filed)
7,500ft
Speed:
(Current/Filed)
115kts
Departed: 29-Dec-17 08:36 PM
Arrived: 29-Dec-17 09:23 PM
Distance/Time
Traveled:
76nm/0:47
Distance/Time
To Go:
Arrived

Flight Plot

Page will automatically refresh every two minutes.


Map Options




Map Legend


Flown Route
Filed Route
Departure Airport
Arrival Airport
Navaid (VOR, NDB)
Fix

Horizontal Profiles

Position Reports

Time Latitude Longitude Heading Altitude Ground
Speed
29-Dec-17 20:33 34.896802 -120.445898 273 265ft 0kts
29-Dec-17 20:34 34.896802 -120.445898 273 265ft 0kts
29-Dec-17 20:35 34.896802 -120.445898 273 265ft 0kts
29-Dec-17 20:36 34.896802 -120.445898 273 265ft 0kts
29-Dec-17 20:37 34.896802 -120.445898 273 265ft 0kts
29-Dec-17 20:38 34.896581 -120.447366 219 265ft 6kts
29-Dec-17 20:39 34.893550 -120.444916 181 265ft 14kts
29-Dec-17 20:40 34.893259 -120.444933 186 265ft 0kts
29-Dec-17 20:41 34.893208 -120.444940 184 265ft 5kts
29-Dec-17 20:42 34.901557 -120.456021 311 595ft 88kts
29-Dec-17 20:43 34.921472 -120.476782 10 1379ft 108kts
29-Dec-17 20:44 34.941810 -120.451251 52 2174ft 106kts
29-Dec-17 20:45 34.955203 -120.421260 95 2965ft 102kts
29-Dec-17 20:46 34.953143 -120.387202 96 3766ft 99kts
29-Dec-17 20:47 34.951780 -120.353979 88 4567ft 97kts
29-Dec-17 20:48 34.957206 -120.322048 73 5367ft 95kts
29-Dec-17 20:49 34.966287 -120.292094 68 6168ft 92kts
29-Dec-17 20:50 34.976171 -120.264092 67 6963ft 88kts
29-Dec-17 20:51 34.986564 -120.236138 66 7514ft 112kts
29-Dec-17 20:52 35.001025 -120.197522 67 7507ft 124kts
29-Dec-17 20:53 35.015096 -120.160558 66 7509ft 117kts
29-Dec-17 20:54 35.028888 -120.124633 66 7510ft 116kts
29-Dec-17 20:55 35.042507 -120.089239 67 7512ft 114kts
29-Dec-17 20:56 35.055966 -120.054039 62 7511ft 115kts
29-Dec-17 20:57 35.069553 -120.018665 62 7512ft 115kts
29-Dec-17 20:58 35.083162 -119.983158 62 7512ft 115kts
29-Dec-17 20:59 35.096863 -119.947355 62 7457ft 117kts
29-Dec-17 21:00 35.110235 -119.912382 62 7458ft 115kts
29-Dec-17 21:01 35.123837 -119.876776 62 7458ft 115kts
29-Dec-17 21:02 35.137362 -119.841327 62 7458ft 115kts
29-Dec-17 21:03 35.150935 -119.805726 62 7459ft 115kts
29-Dec-17 21:04 35.164463 -119.770177 62 7460ft 115kts
29-Dec-17 21:05 35.178029 -119.734510 63 7465ft 115kts
29-Dec-17 21:06 35.191575 -119.698885 63 7473ft 115kts
29-Dec-17 21:07 35.205130 -119.663132 63 7482ft 115kts
29-Dec-17 21:08 35.218641 -119.627498 63 7492ft 115kts
29-Dec-17 21:09 35.232258 -119.591871 62 7501ft 115kts
29-Dec-17 21:10 35.245985 -119.556201 62 7508ft 116kts
29-Dec-17 21:11 35.259548 -119.520405 63 7514ft 116kts
29-Dec-17 21:12 35.273079 -119.484591 63 7515ft 116kts
29-Dec-17 21:13 35.287042 -119.447420 63 6765ft 121kts
29-Dec-17 21:14 35.301012 -119.410333 63 5970ft 120kts
29-Dec-17 21:15 35.314719 -119.373973 63 5517ft 111kts
29-Dec-17 21:16 35.327693 -119.339597 64 5518ft 110kts
29-Dec-17 21:17 35.339482 -119.308196 63 5519ft 97kts
29-Dec-17 21:18 35.351137 -119.277179 63 5519ft 99kts
29-Dec-17 21:19 35.362340 -119.247282 63 5519ft 93kts
29-Dec-17 21:20 35.373116 -119.218551 63 5511ft 93kts
29-Dec-17 21:21 35.385432 -119.185476 64 4621ft 109kts
29-Dec-17 21:22 35.398159 -119.151306 65 3529ft 113kts
29-Dec-17 21:23 35.413657 -119.118860 71 2316ft 111kts
29-Dec-17 21:24 35.428730 -119.088964 100 1536ft 88kts
29-Dec-17 21:25 35.414116 -119.067710 133 1541ft 81kts
29-Dec-17 21:26 35.397607 -119.048025 138 1463ft 87kts
29-Dec-17 21:27 35.401211 -119.025796 36 1278ft 87kts
29-Dec-17 21:28 35.421343 -119.041042 315 836ft 97kts
29-Dec-17 21:29 35.438310 -119.061611 316 493ft 39kts
29-Dec-17 21:30 35.440251 -119.062678 14 498ft 0kts
29-Dec-17 21:31 35.440172 -119.061629 136 500ft 11kts
29-Dec-17 21:32 35.436743 -119.057468 134 495ft 21kts
29-Dec-17 21:33 35.432234 -119.052022 135 493ft 21kts
29-Dec-17 21:34 35.429635 -119.047483 45 493ft 11kts
29-Dec-17 21:35 35.430858 -119.047129 232 498ft 0kts
29-Dec-17 21:36 35.430858 -119.047129 232 498ft 0kts
29-Dec-17 21:37 35.430858 -119.047129 232 498ft 0kts
29-Dec-17 21:38 35.430858 -119.047129 232 498ft 0kts
29-Dec-17 21:39 35.430858 -119.047129 232 498ft 0kts
29-Dec-17 21:40 35.430858 -119.047129 232 498ft 0kts
29-Dec-17 21:41 35.430858 -119.047129 232 498ft 0kts
29-Dec-17 21:42 35.430858 -119.047129 232 498ft 0kts

Navigation Log

Ident Type
1. KSMX Airport
2. KBFL Airport